Time;durP1;ratioP1;P1;durP2;ratioP2;P2;SDS_P1;SDS_P2;PMS_P1;PMS_P2;Temp;Humidity;BMP_temperature;BMP_pressure;BME280_temperature;BME280_humidity;BME280_pressure;Samples;Min_cycle;Max_cycle;Signal;HPM_P1;HPM_P2
2022/05/12 00:02:07;;;;;;;5.20;1.65;;;;;;;15.24;60.40;101151.97;3597663;39;20070;-62
2022/05/12 00:04:35;;;;;;;5.68;1.55;;;;;;;15.20;60.89;101155.91;3599093;39;20397;-62
2022/05/12 00:07:01;;;;;;;7.78;2.08;;;;;;;15.15;61.25;101163.50;3600117;39;20127;-62
2022/05/12 00:09:28;;;;;;;5.35;1.67;;;;;;;15.08;61.53;101157.69;3599694;39;20107;-62
2022/05/12 00:11:53;;;;;;;4.25;1.50;;;;;;;15.02;61.29;101159.00;3597427;39;20063;-62
2022/05/12 00:14:20;;;;;;;7.22;1.77;;;;;;;14.99;61.63;101159.22;3597207;39;20135;-62
2022/05/12 00:16:46;;;;;;;4.78;1.77;;;;;;;14.94;61.81;101168.66;3599649;39;20055;-62
2022/05/12 00:19:12;;;;;;;6.32;1.90;;;;;;;14.89;61.77;101165.47;3599196;39;20082;-62
2022/05/12 00:21:39;;;;;;;4.22;1.65;;;;;;;14.75;61.74;101147.56;3589212;39;20286;-63
2022/05/12 00:24:06;;;;;;;5.70;1.88;;;;;;;14.81;61.86;101168.72;3599032;39;20051;-63
2022/05/12 00:26:35;;;;;;;6.70;1.90;;;;;;;14.51;62.08;101132.13;3598605;39;20086;-63
2022/05/12 00:29:06;;;;;;;5.78;1.70;;;;;;;14.75;62.20;101177.31;3598797;39;20382;-63
2022/05/12 00:31:35;;;;;;;4.22;1.63;;;;;;;14.67;61.97;101175.16;3596018;39;20106;-62
2022/05/12 00:34:02;;;;;;;3.63;1.35;;;;;;;14.68;62.73;101176.03;3598473;39;20402;-62
2022/05/12 00:36:28;;;;;;;5.07;1.55;;;;;;;14.65;62.69;101182.50;3600101;39;20138;-62
2022/05/12 00:38:54;;;;;;;5.15;1.95;;;;;;;14.60;62.51;101190.97;3600772;39;20063;-62
2022/05/12 00:41:19;;;;;;;4.72;1.73;;;;;;;14.56;63.01;101194.03;3600278;39;20063;-64
2022/05/12 00:43:49;;;;;;;3.17;1.40;;;;;;;14.50;63.45;101189.91;3600454;39;20047;-62
2022/05/12 00:46:24;;;;;;;4.68;1.70;;;;;;;14.46;63.35;101190.22;3597514;39;20052;-62
2022/05/12 00:48:53;;;;;;;2.97;1.42;;;;;;;14.42;63.36;101191.41;3600876;39;20774;-63
2022/05/12 00:51:27;;;;;;;6.90;2.10;;;;;;;14.37;63.91;101192.63;3601100;39;20047;-63
2022/05/12 00:54:00;;;;;;;3.22;1.23;;;;;;;14.37;63.54;101191.75;3600092;39;20063;-62
2022/05/12 00:56:26;;;;;;;;;;;;;;;14.33;63.93;101201.06;3599882;39;20601;-63
2022/05/12 00:59:01;;;;;;;5.45;1.65;;;;;;;14.31;64.29;101203.03;3601214;39;19955;-63
2022/05/12 01:01:27;;;;;;;4.88;1.50;;;;;;;14.29;64.50;101211.22;3590164;39;20420;-62
2022/05/12 01:03:58;;;;;;;6.38;1.70;;;;;;;14.25;64.54;101206.16;3602395;39;20103;-62
2022/05/12 01:06:25;;;;;;;5.10;1.95;;;;;;;14.05;64.97;101189.53;3599587;39;21242;-62
2022/05/12 01:08:51;;;;;;;7.40;1.95;;;;;;;14.17;65.24;101212.09;3599748;39;20052;-62
2022/05/12 01:11:21;;;;;;;6.38;1.77;;;;;;;14.15;65.36;101219.47;3597792;39;20048;-62
2022/05/12 01:13:59;;;;;;;6.68;2.08;;;;;;;14.13;65.97;101216.00;3599724;39;20055;-62
2022/05/12 01:16:50;;;;;;;6.07;1.80;;;;;;;14.08;66.11;101219.03;3600647;39;20427;-62
2022/05/12 01:19:22;;;;;;;6.10;1.90;;;;;;;13.98;65.99;101209.81;3599815;39;20059;-61
2022/05/12 01:21:50;;;;;;;5.28;2.15;;;;;;;13.97;66.54;101224.31;3599718;39;20076;-61
2022/05/12 01:24:20;;;;;;;9.88;2.42;;;;;;;13.92;66.81;101226.47;3600779;39;20052;-64
2022/05/12 01:26:47;;;;;;;6.45;2.50;;;;;;;13.85;67.44;101227.88;3597132;39;20199;-63
2022/05/12 01:29:13;;;;;;;6.57;2.60;;;;;;;13.80;67.48;101227.34;3598938;39;20063;-62
2022/05/12 01:31:40;;;;;;;7.72;2.60;;;;;;;13.70;67.44;101227.06;3600049;39;20106;-63
2022/05/12 01:34:10;;;;;;;9.90;2.92;;;;;;;13.69;68.13;101239.72;3601214;39;20406;-62
2022/05/12 01:36:37;;;;;;;10.15;2.45;;;;;;;13.61;68.02;101230.44;3597508;39;20055;-63
2022/05/12 01:39:06;;;;;;;7.03;2.67;;;;;;;13.63;68.22;101253.66;3597967;39;20111;-63
2022/05/12 01:41:32;;;;;;;7.57;2.45;;;;;;;13.35;67.82;101210.56;3596810;39;20124;-63
2022/05/12 01:44:00;;;;;;;8.95;2.65;;;;;;;13.31;67.93;101214.44;3598207;39;20301;-64
2022/05/12 01:46:26;;;;;;;10.10;2.42;;;;;;;13.44;68.17;101245.91;3600064;39;20189;-64
2022/05/12 01:48:51;;;;;;;7.20;2.65;;;;;;;13.43;68.54;101251.44;3601091;39;20101;-64
2022/05/12 01:51:17;;;;;;;8.02;2.58;;;;;;;13.42;68.66;101247.03;3598555;39;20700;-63
2022/05/12 01:53:43;;;;;;;6.80;2.47;;;;;;;13.37;68.43;101251.84;3596801;39;20267;-63
2022/05/12 01:56:09;;;;;;;12.63;2.63;;;;;;;13.35;68.93;101251.06;3599490;39;20047;-62
2022/05/12 01:58:35;;;;;;;6.63;2.40;;;;;;;13.29;69.05;101270.38;3597602;39;20088;-63
2022/05/12 02:01:01;;;;;;;9.60;2.53;;;;;;;13.23;69.51;101269.81;3599198;39;20051;-62
2022/05/12 02:03:26;;;;;;;8.80;2.88;;;;;;;13.14;69.61;101270.41;3599582;39;20055;-61
2022/05/12 02:05:52;;;;;;;9.35;2.63;;;;;;;13.14;69.44;101270.41;3598897;39;20056;-62
2022/05/12 02:08:19;;;;;;;7.25;2.65;;;;;;;13.08;69.65;101289.69;3597744;39;20059;-62
2022/05/12 02:10:50;;;;;;;11.27;2.80;;;;;;;12.97;70.06;101287.72;3600260;39;20047;-63
2022/05/12 02:13:18;;;;;;;8.43;2.47;;;;;;;12.91;70.66;101293.50;3599902;39;21644;-62
2022/05/12 02:15:44;;;;;;;6.18;2.35;;;;;;;12.78;70.77;101282.63;3600825;39;20093;-63
2022/05/12 02:18:10;;;;;;;8.32;2.72;;;;;;;12.82;70.53;101293.22;3598827;39;20082;-62
2022/05/12 02:20:37;;;;;;;10.68;2.58;;;;;;;12.80;70.73;101300.53;3595445;39;20055;-62
2022/05/12 02:23:03;;;;;;;7.35;2.58;;;;;;;12.72;71.04;101301.91;3596620;39;20047;-62
2022/05/12 02:25:29;;;;;;;9.93;2.70;;;;;;;12.70;71.34;101302.94;3597291;39;20397;-62
2022/05/12 02:27:55;;;;;;;11.25;2.83;;;;;;;12.68;71.00;101303.03;3598722;39;20071;-63
2022/05/12 02:30:32;;;;;;;8.45;2.90;;;;;;;12.57;71.18;101288.50;3595968;39;20048;-62
2022/05/12 02:32:58;;;;;;;10.32;3.22;;;;;;;12.63;71.43;101305.16;3600766;39;20065;-63
2022/05/12 02:35:26;;;;;;;7.50;2.72;;;;;;;12.57;71.85;101310.94;3597782;39;20055;-63
2022/05/12 02:37:52;;;;;;;9.52;2.67;;;;;;;12.54;71.81;101316.53;3598497;39;20180;-63
2022/05/12 02:40:23;;;;;;;6.63;3.05;;;;;;;12.51;71.48;101314.03;3599718;39;20378;-62
2022/05/12 02:42:49;;;;;;;8.05;3.17;;;;;;;12.45;72.12;101319.78;3596624;39;20066;-62
2022/05/12 02:45:15;;;;;;;9.25;2.70;;;;;;;12.41;72.20;101319.13;3595382;39;20059;-63
2022/05/12 02:47:42;;;;;;;7.15;2.83;;;;;;;12.38;72.33;101321.13;3596478;39;20056;-62
2022/05/12 02:50:11;;;;;;;5.63;3.10;;;;;;;12.39;72.81;101322.88;3596539;39;20052;-62
2022/05/12 02:52:37;;;;;;;11.75;3.42;;;;;;;12.36;72.26;101326.59;3595688;39;20051;-63
2022/05/12 02:55:03;;;;;;;9.30;3.33;;;;;;;12.34;72.51;101333.94;3600962;39;20055;-63
2022/05/12 02:57:29;;;;;;;8.13;3.60;;;;;;;12.29;72.69;101327.94;3597883;39;20367;-61
2022/05/12 02:59:54;;;;;;;14.38;4.25;;;;;;;12.26;72.75;101329.00;3598339;39;20085;-62
2022/05/12 03:02:20;;;;;;;11.65;4.55;;;;;;;12.24;73.50;101324.66;3599963;39;20390;-62
2022/05/12 03:04:46;;;;;;;10.98;4.25;;;;;;;12.26;73.40;101328.13;3596696;39;20094;-64
2022/05/12 03:07:12;;;;;;;14.52;4.60;;;;;;;12.25;73.80;101327.28;3597101;39;20048;-63
2022/05/12 03:09:38;;;;;;;9.70;4.10;;;;;;;12.23;73.76;101334.56;3597247;39;20063;-63
2022/05/12 03:12:04;;;;;;;11.90;4.65;;;;;;;12.23;73.84;101341.81;3600169;39;20055;-63
2022/05/12 03:14:30;;;;;;;14.77;4.78;;;;;;;12.25;73.53;101338.06;3597319;39;20055;-62
2022/05/12 03:16:56;;;;;;;9.60;4.50;;;;;;;12.23;73.64;101339.09;3598441;39;20058;-62
2022/05/12 03:19:22;;;;;;;11.23;4.45;;;;;;;12.24;75.03;101347.13;3587779;39;20055;-64
2022/05/12 03:21:49;;;;;;;10.75;4.55;;;;;;;12.27;74.76;101348.72;3596390;39;20366;-63
2022/05/12 03:24:19;;;;;;;10.40;4.88;;;;;;;12.32;73.69;101354.72;3597770;39;20049;-61
2022/05/12 03:26:47;;;;;;;11.85;5.38;;;;;;;12.30;73.68;101351.25;3596393;39;20064;-61
2022/05/12 03:29:12;;;;;;;14.98;4.90;;;;;;;12.22;74.09;101349.03;3599775;39;20051;-62
2022/05/12 03:31:38;;;;;;;17.67;5.78;;;;;;;12.18;74.22;101346.59;3599375;39;20058;-62
2022/05/12 03:34:06;;;;;;;11.52;5.47;;;;;;;12.22;74.45;101349.03;3598850;39;20089;-62
2022/05/12 03:36:36;;;;;;;15.35;5.60;;;;;;;12.20;74.07;101359.03;3596320;39;20063;-61
2022/05/12 03:39:05;;;;;;;14.27;5.80;;;;;;;12.21;74.32;101358.09;3598424;39;20055;-64
2022/05/12 03:41:31;;;;;;;12.30;6.40;;;;;;;12.21;74.93;101366.16;3599716;39;20071;-62
2022/05/12 03:46:41;;;;;;;;;;;;;;;12.22;74.96;101372.41;3599439;39;20047;-62
2022/05/12 03:49:07;;;;;;;18.25;7.15;;;;;;;12.21;75.09;101374.25;3595905;39;19951;-63
2022/05/12 03:51:33;;;;;;;19.67;7.43;;;;;;;12.21;75.88;101378.75;3596801;39;20062;-62
2022/05/12 03:53:59;;;;;;;19.27;8.13;;;;;;;12.24;75.95;101378.56;3597283;39;20062;-61
2022/05/12 03:56:24;;;;;;;20.85;8.35;;;;;;;12.25;75.91;101378.50;3596776;39;20066;-62
2022/05/12 03:58:50;;;;;;;21.17;8.82;;;;;;;12.26;76.29;101391.00;3596422;39;20047;-62
2022/05/12 04:01:15;;;;;;;21.63;9.00;;;;;;;12.27;75.83;101384.66;3599493;39;20047;-61
2022/05/12 04:03:41;;;;;;;19.73;8.65;;;;;;;12.34;76.17;101384.28;3597548;39;20059;-60
2022/05/12 04:06:07;;;;;;;24.30;9.98;;;;;;;12.15;76.14;101358.44;3596148;39;20496;-63
2022/05/12 04:08:35;;;;;;;21.50;10.45;;;;;;;12.34;75.89;101390.56;3597498;39;20051;-61
2022/05/12 04:11:01;;;;;;;28.25;11.32;;;;;;;12.28;76.16;101401.72;3595113;39;20728;-61
2022/05/12 04:13:26;;;;;;;22.30;11.45;;;;;;;12.27;77.31;101405.34;3596016;39;20055;-61
2022/05/12 04:15:52;;;;;;;28.08;11.90;;;;;;;12.27;77.34;101399.94;3598764;39;20441;-61
2022/05/12 04:18:18;;;;;;;25.67;12.00;;;;;;;12.27;77.05;101416.13;3597462;39;20147;-62
2022/05/12 04:20:44;;;;;;;21.83;11.63;;;;;;;12.28;77.61;101415.19;3595592;39;20051;-62
2022/05/12 04:23:10;;;;;;;26.58;11.77;;;;;;;12.20;76.89;101404.84;3596092;39;20059;-62
2022/05/12 04:25:35;;;;;;;23.98;11.45;;;;;;;12.15;77.53;101390.78;3594462;39;20072;-62
2022/05/12 04:28:03;;;;;;;22.63;11.75;;;;;;;12.27;77.70;101425.09;3595317;39;20115;-62
2022/05/12 04:30:30;;;;;;;23.67;11.48;;;;;;;12.30;77.81;101434.81;3598493;39;20279;-61
2022/05/12 04:35:09;;;;;;;25.30;11.68;;;;;;;12.30;77.90;101433.00;3598897;39;20112;-61
2022/05/12 04:35:42;;;;;;;23.92;11.73;;;;;;;12.34;77.89;101427.41;3598654;39;20063;-61
2022/05/12 04:38:08;;;;;;;25.13;11.77;;;;;;;12.35;77.63;101437.25;3597928;39;20051;-62
2022/05/12 04:40:33;;;;;;;28.92;13.07;;;;;;;12.38;77.61;101437.06;3597794;39;20058;-61
2022/05/12 04:42:59;;;;;;;29.45;13.32;;;;;;;12.39;77.38;101441.50;3597702;39;20417;-61
2022/05/12 04:45:31;;;;;;;25.55;12.27;;;;;;;12.41;77.78;101440.44;3597802;39;20071;-62
2022/05/12 04:47:57;;;;;;;22.17;12.00;;;;;;;12.43;77.81;101445.72;3598603;39;20051;-62
2022/05/12 04:50:31;;;;;;;25.63;12.13;;;;;;;12.45;77.67;101435.72;3597786;39;20059;-61
2022/05/12 04:52:58;;;;;;;25.65;12.90;;;;;;;12.50;78.01;101439.03;3596731;39;20093;-62
2022/05/12 04:55:24;;;;;;;29.95;13.68;;;;;;;12.50;78.06;101439.91;3598814;39;20508;-62
2022/05/12 04:57:56;;;;;;;30.77;14.88;;;;;;;12.54;78.07;101444.13;3630492;22;20040;-61
2022/05/12 05:00:36;;;;;;;29.15;14.60;;;;;;;12.53;78.84;101445.09;3597596;39;20123;-60
2022/05/12 05:03:03;;;;;;;23.90;14.25;;;;;;;12.62;78.80;101448.19;3597644;39;20144;-61
2022/05/12 05:05:29;;;;;;;28.35;14.82;;;;;;;12.66;78.85;101456.03;3596805;39;20083;-61
2022/05/12 05:07:55;;;;;;;30.88;15.88;;;;;;;12.67;78.01;101460.44;3592077;39;20058;-60
2022/05/12 05:10:22;;;;;;;29.00;15.02;;;;;;;12.73;78.64;101470.88;3590923;39;20428;-61
2022/05/12 05:12:48;;;;;;;25.92;16.35;;;;;;;12.77;78.37;101475.09;3591397;39;21181;-61
2022/05/12 05:15:16;;;;;;;28.13;15.73;;;;;;;12.80;78.49;101473.19;3589179;39;20128;-61
2022/05/12 05:17:43;;;;;;;29.73;16.90;;;;;;;12.85;79.18;101482.75;3591676;39;20047;-61
2022/05/12 05:20:16;;;;;;;32.05;17.77;;;;;;;12.82;78.81;101463.19;3592521;39;20067;-60
2022/05/12 05:22:43;;;;;;;28.00;16.48;;;;;;;12.89;79.05;101472.63;3593879;39;20060;-61
2022/05/12 05:25:09;;;;;;;31.75;17.88;;;;;;;12.93;78.46;101469.66;3591984;39;20067;-62
2022/05/12 05:27:37;;;;;;;31.23;18.05;;;;;;;13.09;78.60;101493.84;3594502;39;20133;-61
2022/05/12 05:30:10;;;;;;;29.05;17.63;;;;;;;13.12;78.43;101488.28;3592868;39;20066;-61
2022/05/12 05:32:37;;;;;;;30.02;18.17;;;;;;;13.21;78.59;101501.19;3592001;39;20346;-61
2022/05/12 05:35:04;;;;;;;28.17;17.15;;;;;;;13.26;78.27;101494.66;3591848;39;20064;-61
2022/05/12 05:37:30;;;;;;;32.30;18.58;;;;;;;13.35;78.11;101503.09;3593945;39;20451;-62
2022/05/12 05:39:56;;;;;;;27.65;17.92;;;;;;;13.36;78.18;101499.41;3593150;39;20044;-61
2022/05/12 05:42:21;;;;;;;28.92;18.63;;;;;;;13.48;78.13;101519.41;3590023;39;20406;-60
2022/05/12 05:44:48;;;;;;;31.38;20.38;;;;;;;13.51;77.82;101508.41;3592879;39;20084;-62
2022/05/12 05:47:14;;;;;;;29.15;18.38;;;;;;;13.55;77.58;101512.63;3590916;39;20417;-61
2022/05/12 05:49:41;;;;;;;31.38;19.27;;;;;;;13.69;77.93;101539.63;3593533;39;20124;-60
2022/05/12 05:54:53;;;;;;;27.83;18.30;;;;;;;13.75;77.59;101532.09;3591975;39;20058;-61
2022/05/12 05:57:26;;;;;;;37.05;20.73;;;;;;;13.88;77.25;101538.44;3590887;39;20058;-61
2022/05/12 05:59:57;;;;;;;34.33;19.85;;;;;;;13.88;77.57;101539.31;3591959;39;20055;-61
2022/05/12 06:02:23;;;;;;;30.77;19.42;;;;;;;14.05;77.05;101545.47;3592038;39;20058;-62
2022/05/12 06:04:50;;;;;;;33.97;20.40;;;;;;;14.12;76.60;101561.22;3589810;39;20101;-61
2022/05/12 06:07:16;;;;;;;33.55;20.08;;;;;;;14.24;76.57;101566.75;3591976;39;20051;-62
2022/05/12 06:09:42;;;;;;;28.85;20.30;;;;;;;14.22;76.42;101544.38;3592676;39;20055;-62
2022/05/12 06:12:11;;;;;;;32.05;20.83;;;;;;;14.43;76.17;101567.31;3591751;39;20058;-62
2022/05/12 06:14:38;;;;;;;34.25;19.90;;;;;;;14.57;75.37;101566.44;3593048;39;20043;-63
2022/05/12 06:17:04;;;;;;;29.35;19.92;;;;;;;14.57;74.98;101570.00;3590016;39;20133;-61
2022/05/12 06:19:31;;;;;;;29.77;19.25;;;;;;;14.71;74.42;101562.78;3592945;39;20059;-62
2022/05/12 06:21:57;;;;;;;30.02;18.80;;;;;;;14.74;74.80;101568.84;3590424;39;20084;-62
2022/05/12 06:24:23;;;;;;;31.75;20.90;;;;;;;14.87;74.24;101577.00;3591631;39;20477;-63
2022/05/12 06:26:49;;;;;;;29.13;20.05;;;;;;;14.94;73.66;101572.03;3591615;39;20133;-61
2022/05/12 06:29:15;;;;;;;27.10;18.65;;;;;;;15.09;73.04;101576.41;3591903;39;20052;-63
2022/05/12 06:31:42;;;;;;;28.85;19.58;;;;;;;15.11;72.72;101549.25;3590162;39;20052;-61
2022/05/12 06:34:07;;;;;;;29.00;19.15;;;;;;;15.41;72.43;101585.00;3579408;39;20060;-63
2022/05/12 06:36:33;;;;;;;29.80;19.50;;;;;;;15.52;71.27;101585.13;3592211;39;20059;-63
2022/05/12 06:38:59;;;;;;;28.13;19.17;;;;;;;15.58;70.42;101580.25;3589276;39;20063;-62
2022/05/12 06:41:26;;;;;;;26.92;17.73;;;;;;;15.60;69.92;101591.84;3589919;39;20307;-63
2022/05/12 06:43:53;;;;;;;25.63;17.88;;;;;;;15.66;69.82;101596.81;3589190;39;20086;-62
2022/05/12 06:46:20;;;;;;;24.88;16.65;;;;;;;15.72;69.10;101615.41;3587991;39;20058;-63
2022/05/12 06:48:49;;;;;;;26.55;17.55;;;;;;;15.71;68.35;101605.53;3588728;39;20055;-63
2022/05/12 06:51:16;;;;;;;24.98;17.33;;;;;;;15.74;68.96;101608.91;3589421;39;20074;-62
2022/05/12 06:53:43;;;;;;;24.27;17.25;;;;;;;15.74;68.56;101599.91;3587562;39;20097;-62
2022/05/12 06:56:09;;;;;;;27.92;16.73;;;;;;;16.03;68.12;101614.09;3588022;39;20048;-63
2022/05/12 06:58:36;;;;;;;26.00;15.95;;;;;;;15.80;67.06;101528.97;3588416;39;20062;-63
2022/05/12 07:01:04;;;;;;;23.65;16.17;;;;;;;16.39;65.47;101605.09;3591372;40;20067;-63
2022/05/12 07:03:30;;;;;;;23.15;16.38;;;;;;;16.64;64.34;101620.41;3590904;40;20044;-63
2022/05/12 07:05:58;;;;;;;19.98;15.07;;;;;;;16.71;63.34;101607.25;3591271;40;20055;-63
2022/05/12 07:08:26;;;;;;;22.70;15.35;;;;;;;16.86;62.96;101608.84;3592515;40;20090;-63
2022/05/12 07:10:52;;;;;;;19.70;13.63;;;;;;;17.14;61.04;101620.31;3589693;40;20421;-63
2022/05/12 07:13:21;;;;;;;18.73;13.52;;;;;;;17.30;59.98;101615.44;3591833;39;20108;-63
2022/05/12 07:15:49;;;;;;;17.52;12.73;;;;;;;17.44;59.32;101621.63;3589947;39;20303;-63
2022/05/12 07:18:17;;;;;;;20.88;13.30;;;;;;;17.35;59.38;101620.53;3591282;39;20121;-63
2022/05/12 07:28:58;;;;;;;17.70;12.35;;;;;;;16.85;59.99;101641.56;3589351;39;20126;-63
2022/05/12 07:31:24;;;;;;;22.35;13.60;;;;;;;16.79;60.74;101639.31;3590780;39;20088;-64
2022/05/12 07:33:50;;;;;;;21.92;12.35;;;;;;;17.09;59.99;101636.97;3590887;39;20050;-63
2022/05/12 07:36:22;;;;;;;20.48;12.98;;;;;;;17.40;57.69;101638.19;3590692;39;20128;-64
2022/05/12 07:38:48;;;;;;;20.08;13.10;;;;;;;17.76;58.10;101644.47;3591235;39;20374;-63
2022/05/12 07:41:16;;;;;;;17.80;12.15;;;;;;;17.77;56.40;101632.63;3589125;39;20055;-63
2022/05/12 07:43:44;;;;;;;16.73;11.50;;;;;;;17.90;55.39;101645.25;3590542;39;20100;-64
2022/05/12 07:46:13;;;;;;;17.10;11.43;;;;;;;17.83;55.67;101645.72;3589596;39;20059;-64
2022/05/12 07:48:39;;;;;;;16.80;10.48;;;;;;;18.09;53.78;101651.81;3590342;39;20302;-62
2022/05/12 07:51:06;;;;;;;19.42;9.27;;;;;;;18.42;53.12;101644.59;3589950;39;20088;-65
2022/05/12 07:53:33;;;;;;;14.30;9.38;;;;;;;18.45;52.18;101627.16;3590763;39;20355;-65
2022/05/12 07:55:58;;;;;;;16.05;9.88;;;;;;;18.60;51.51;101642.22;3588884;39;20074;-65
2022/05/12 07:58:24;;;;;;;15.50;11.00;;;;;;;18.90;52.23;101657.03;3589857;40;20048;-65
2022/05/12 08:00:52;;;;;;;18.73;13.02;;;;;;;18.70;51.88;101648.63;3586658;40;20067;-66
2022/05/12 08:03:17;;;;;;;14.90;10.88;;;;;;;18.55;51.88;101658.06;3586544;40;20323;-66
2022/05/12 08:05:43;;;;;;;16.20;11.20;;;;;;;18.50;51.86;101646.72;3587861;40;20051;-66
2022/05/12 08:08:11;;;;;;;17.75;9.85;;;;;;;17.89;50.27;101499.31;3588448;40;20058;-65
2022/05/12 08:10:37;;;;;;;10.85;8.48;;;;;;;19.10;48.65;101664.41;3588506;40;20048;-65
2022/05/12 08:13:04;;;;;;;14.52;9.75;;;;;;;18.93;48.58;101651.31;3586356;40;20107;-66
2022/05/12 08:15:31;;;;;;;13.93;10.55;;;;;;;19.20;49.26;101669.94;3586415;40;20357;-65
2022/05/12 08:17:57;;;;;;;16.00;10.55;;;;;;;19.11;48.76;101668.00;3586447;40;20052;-66
2022/05/12 08:20:24;;;;;;;17.52;10.38;;;;;;;18.94;48.75;101681.19;3585045;40;20056;-67
2022/05/12 08:22:51;;;;;;;12.00;8.40;;;;;;;18.58;48.50;101646.91;3585373;40;20051;-66
2022/05/12 08:25:18;;;;;;;13.10;7.90;;;;;;;19.04;47.99;101670.38;3588769;40;20080;-66
2022/05/12 08:27:45;;;;;;;12.77;8.27;;;;;;;19.24;47.41;101664.09;3588932;40;20052;-66
2022/05/12 08:30:16;;;;;;;10.60;7.30;;;;;;;19.40;45.96;101657.31;3585859;40;20045;-66
2022/05/12 08:32:42;;;;;;;13.55;5.65;;;;;;;19.62;44.42;101670.84;3587061;40;20119;-65
2022/05/12 08:35:08;;;;;;;11.35;5.82;;;;;;;19.95;44.00;101649.84;3589718;40;20314;-65
2022/05/12 08:37:33;;;;;;;11.15;5.32;;;;;;;20.43;42.10;101660.09;3586993;40;20054;-65
2022/05/12 08:40:00;;;;;;;12.02;5.45;;;;;;;20.69;40.59;101674.13;3584808;40;20791;-70
2022/05/12 08:42:46;;;;;;;7.95;5.30;;;;;;;20.85;41.17;101671.72;3585841;40;20099;-65
2022/05/12 08:45:18;;;;;;;11.00;7.60;;;;;;;20.60;41.30;101666.78;3590378;40;20048;-65
2022/05/12 08:47:50;;;;;;;10.48;6.78;;;;;;;20.22;42.31;101673.78;3586501;40;20048;-65
2022/05/12 08:50:30;;;;;;;9.23;6.60;;;;;;;19.86;42.68;101667.00;3586967;40;20049;-66
2022/05/12 08:53:01;;;;;;;8.50;5.82;;;;;;;19.67;42.21;101675.94;3583803;40;20088;-66
2022/05/12 08:55:47;;;;;;;7.45;5.70;;;;;;;19.95;42.90;101660.75;3587412;40;20084;-66
2022/05/12 08:58:38;;;;;;;9.18;6.00;;;;;;;20.59;41.06;101667.78;3591221;39;20080;-66
2022/05/12 09:01:36;;;;;;;9.02;6.40;;;;;;;20.82;39.31;101682.06;3585743;40;20041;-66
2022/05/12 09:04:30;;;;;;;9.00;7.22;;;;;;;20.69;40.07;101681.47;3588443;40;20376;-67
2022/05/12 09:07:09;;;;;;;8.82;6.78;;;;;;;20.70;40.36;101688.66;3587360;40;20092;-66
2022/05/12 09:09:56;;;;;;;9.35;5.63;;;;;;;20.00;41.45;101616.66;3588751;40;20103;-66
2022/05/12 09:12:51;;;;;;;11.00;5.40;;;;;;;20.27;41.39;101681.59;3591408;40;20048;-65
2022/05/12 09:15:28;;;;;;;7.15;4.80;;;;;;;20.09;41.66;101679.47;3589601;40;20383;-67
2022/05/12 09:18:16;;;;;;;10.60;5.82;;;;;;;19.87;42.09;101675.06;3588098;40;20069;-65
2022/05/12 09:20:43;;;;;;;9.27;5.90;;;;;;;19.62;41.92;101672.69;3588860;40;20055;-62
2022/05/12 09:23:09;;;;;;;7.43;5.90;;;;;;;19.54;42.56;101695.19;3590130;40;20145;-63
2022/05/12 09:25:45;;;;;;;7.97;5.20;;;;;;;19.60;41.95;101689.22;3591605;39;20390;-64
2022/05/12 09:28:34;;;;;;;10.35;5.53;;;;;;;19.57;41.62;101681.31;3590335;40;20387;-63
2022/05/12 09:31:20;;;;;;;8.23;5.82;;;;;;;19.71;41.32;101658.31;3587255;40;20099;-64
2022/05/12 09:33:51;;;;;;;9.98;6.40;;;;;;;20.08;40.34;101683.22;3587427;40;20048;-64
2022/05/12 09:36:29;;;;;;;9.38;5.60;;;;;;;20.05;41.37;101682.63;3590789;40;20084;-63
2022/05/12 09:38:55;;;;;;;11.55;6.28;;;;;;;20.12;42.02;101679.22;3587201;40;20052;-64
2022/05/12 09:41:42;;;;;;;11.52;6.13;;;;;;;20.11;40.55;101676.63;3589000;40;20060;-63
2022/05/12 09:44:23;;;;;;;8.55;5.07;;;;;;;20.02;40.49;101667.38;3589038;40;20064;-64
2022/05/12 09:47:16;;;;;;;11.50;5.38;;;;;;;19.90;40.50;101671.19;3589155;40;20415;-64
2022/05/12 09:49:46;;;;;;;9.17;4.67;;;;;;;19.77;39.12;101670.53;3588618;40;20378;-64
2022/05/12 09:52:28;;;;;;;6.00;4.38;;;;;;;19.62;39.04;101678.16;3589037;40;20090;-63
2022/05/12 09:55:18;;;;;;;11.75;5.20;;;;;;;19.69;39.57;101671.19;3588532;40;20048;-63
2022/05/12 09:58:21;;;;;;;6.20;3.50;;;;;;;19.86;38.31;101672.47;3588269;39;20261;-64
2022/05/12 10:01:12;;;;;;;8.68;3.83;;;;;;;19.95;37.81;101677.13;3570320;40;20060;-63
2022/05/12 10:09:52;;;;;;;4.28;3.17;;;;;;;21.08;37.40;101672.31;3591015;40;20378;-63
2022/05/12 10:12:30;;;;;;;6.10;3.03;;;;;;;21.74;35.99;101676.22;3586294;40;20052;-63
2022/05/12 10:15:27;;;;;;;8.02;3.60;;;;;;;22.31;35.49;101657.06;3586284;40;20840;-65
2022/05/12 10:18:25;;;;;;;7.88;2.80;;;;;;;22.61;33.34;101675.94;3586184;40;20052;-63
2022/05/12 10:21:01;;;;;;;7.03;3.50;;;;;;;22.51;34.20;101668.78;3584863;40;20391;-63
2022/05/12 10:23:59;;;;;;;6.95;3.95;;;;;;;22.56;34.72;101674.66;3586486;40;20059;-64
2022/05/12 10:26:43;;;;;;;5.75;3.30;;;;;;;22.45;34.61;101673.84;3590924;40;20068;-64
2022/05/12 10:29:37;;;;;;;7.50;3.40;;;;;;;22.57;34.21;101660.78;3587237;40;20398;-64
2022/05/12 10:32:23;;;;;;;7.05;3.60;;;;;;;22.99;33.17;101673.13;3587650;40;20052;-64
2022/05/12 10:35:08;;;;;;;6.55;3.42;;;;;;;23.30;33.02;101682.69;3588139;40;20055;-64
2022/05/12 10:38:17;;;;;;;6.75;3.55;;;;;;;23.06;33.15;101671.50;3589301;40;20055;-63
2022/05/12 10:41:16;;;;;;;3.33;2.60;;;;;;;22.59;32.77;101664.25;3583956;40;20055;-65
2022/05/12 10:44:13;;;;;;;5.43;3.30;;;;;;;22.11;33.72;101670.78;3589911;40;20063;-64
2022/05/12 10:46:58;;;;;;;7.45;3.13;;;;;;;21.76;34.81;101664.13;3585960;40;20048;-64
2022/05/12 10:49:57;;;;;;;5.72;2.78;;;;;;;21.52;34.70;101670.06;3586217;40;20114;-63
2022/05/12 10:52:49;;;;;;;6.78;3.03;;;;;;;21.26;34.68;101671.63;3589446;40;20052;-63
2022/05/12 10:55:37;;;;;;;5.90;2.95;;;;;;;21.23;34.37;101669.19;3590947;40;20105;-64
2022/05/12 11:00:57;;;;;;;5.82;3.17;;;;;;;21.09;35.77;101667.72;3606154;39;20296;-62
2022/05/12 11:03:34;;;;;;;8.00;3.47;;;;;;;21.13;34.95;101668.31;3598719;39;20074;-61
2022/05/12 11:06:05;;;;;;;4.85;3.47;;;;;;;20.92;35.18;101617.34;3596597;39;20067;-61
2022/05/12 11:08:47;;;;;;;7.65;3.45;;;;;;;21.62;36.94;101655.50;3610987;39;20055;-63
2022/05/12 11:11:27;;;;;;;5.93;3.20;;;;;;;21.94;35.47;101650.50;3599801;39;20055;-63
2022/05/12 11:14:35;;;;;;;7.53;3.75;;;;;;;22.16;33.06;101656.66;3594220;39;20076;-63
2022/05/12 11:17:34;;;;;;;5.35;3.00;;;;;;;22.19;32.40;101657.22;3598665;39;20063;-62
2022/05/12 11:20:32;;;;;;;6.63;3.47;;;;;;;22.00;33.06;101652.66;3600399;39;20066;-62
2022/05/12 11:23:27;;;;;;;5.97;3.03;;;;;;;21.82;32.94;101645.34;3602177;39;20448;-62
2022/05/12 11:26:27;;;;;;;9.48;3.00;;;;;;;21.98;32.80;101654.69;3596918;39;20399;-62
2022/05/12 11:32:34;;;;;;;3.83;2.90;;;;;;;22.57;33.75;101654.47;3600334;39;20112;-63
2022/05/12 11:35:08;;;;;;;7.85;2.75;;;;;;;22.49;32.13;101652.50;3588764;39;20418;-63
2022/05/12 11:37:43;;;;;;;6.18;2.47;;;;;;;22.56;31.65;101647.25;3598905;39;20063;-62
2022/05/12 11:40:48;;;;;;;4.22;2.05;;;;;;;22.77;32.33;101642.38;3595928;39;20052;-62
2022/05/12 11:47:01;;;;;;;3.58;2.22;;;;;;;22.91;30.69;101641.81;3598874;39;20081;-62
2022/05/12 11:49:42;;;;;;;4.80;2.13;;;;;;;22.61;31.12;101645.78;3597360;39;20420;-62
2022/05/12 11:52:21;;;;;;;4.68;2.05;;;;;;;22.68;31.87;101640.56;3598306;39;20050;-62
2022/05/12 11:54:54;;;;;;;6.90;2.35;;;;;;;22.58;32.08;101626.91;3597206;39;20056;-61
2022/05/12 11:57:34;;;;;;;5.25;2.00;;;;;;;22.65;30.76;101647.19;3600562;39;20055;-62
2022/05/12 12:00:08;;;;;;;4.35;1.90;;;;;;;22.49;30.44;101649.75;3601369;39;20062;-62
2022/05/12 12:02:34;;;;;;;3.72;1.85;;;;;;;22.40;31.30;101651.53;3598378;39;20047;-62
2022/05/12 12:05:19;;;;;;;4.35;1.70;;;;;;;22.30;32.56;101647.97;3595259;39;20062;-62
2022/05/12 12:07:47;;;;;;;6.82;2.03;;;;;;;22.18;30.82;101639.09;3597483;39;20054;-62
2022/05/12 12:10:25;;;;;;;4.18;1.98;;;;;;;22.12;31.78;101647.88;3603176;39;20047;-62